Weather at Nam Phung Dam Airport

Public forecast

Using degrees Celsius for public forecast. Weather courtesy of forecast.io.

Closest aviation weather report (METAR) to Nam Phung Dam Airport

Closest report is Khon Kaen Airport, 15.3 nm (28.4 km) SW. Retrieved 2022/05/24 02:00 UTC (35 minutes ago):

VTUK 240200Z 21008KT 180V240 9999 FEW030 30/23 Q1008 NOSIG

Closest aviation forecast (TAF) to Nam Phung Dam Airport

Closest forecast is Khon Kaen Airport, 15.3 nm (28.4 km) SW. Retrieved 2022-05-24 00:40 UTC (2 hours ago):

TAF VTUK 232300Z 2400/2424 20008KT 9000 FEW030 SCT100 TEMPO 2408/2414 VRB15KT 4000 TSRA FEW018CB BKN020 BKN080